Aérodrome :
LOGIN :

S'inscrire | Disclaimer

   EN    FR    IT 

 










Légende :    VFR   VFR Marginal   IFR   IFR Intensif   IFR Très Intensif
Visi : 
Plafond : 
>= 8 km
>= 3000ft
5 à 8 km
1000 à 3000 ft
1500m à 5 km
500 à 1000 ft
800 à 1500m
200 à 500 ft
< 800m
< 200 ft
Symboles :   Orages  Brouillard  Fortes neiges  Fortes précipitations  Vent > 20 kt
SIGMETs :   Divers  Orages  Givrage  Turbulence  Onde Orograph.  Cendres Volcan.






- Altitude de l'aérodrome : 1910 ft
- Code IATA : RDZ


LFCR - Rodez

DERNIER METAR :
  • 271500Z AUTO 31008KT 9999 FEW017 BKN026 OVC032 13/10 Q1022 NOSIG

METARs EXPIRÉS :
  • 271430Z AUTO 32007KT 300V360 9999 BKN015 BKN023 BKN028 14/11 Q1022 NOSIG
  • 271400Z AUTO 32006KT 280V360 9999 BKN016 BKN022 BKN040 14/11 Q1022 NOSIG
  • 271330Z AUTO 30004KT 260V340 9999 BKN037 OVC070 14/10 Q1022 NOSIG
  • 271300Z AUTO 24003KT 220V280 9999 OVC036 12/10 Q1022 NOSIG
  • 271230Z AUTO 28004KT 9999 FEW012 SCT019 BKN025 11/09 Q1022 NOSIG
  • 271200Z AUTO 27008KT 240V300 8000 -RA FEW009 BKN015 OVC034 11/10 Q1022 TEMPO BKN012 SCT035TCU
  • 271130Z AUTO 29007KT 9999 -RA FEW014 OVC035 11/10 Q1022 NOSIG
  • 271100Z AUTO 30009KT 270V330 9000 -DZ SCT009/// BKN014/// BKN019/// ///TCU 11/10 Q1022 TEMPO BKN007 BKN030 FEW040CB
  • 271030Z AUTO 30008KT 9999 -RADZ SCT009/// OVC015/// //////TCU 11/10 Q1022 TEMPO BKN007 BKN030 FEW040CB

TAF TAF LFCR
Valide du 27 à 12h jusqu'au 28 à 12h UTC


271100Z 2712/2812 29008KT 9999 BKN040
PROB40
TEMPO 2712/2713 -RA BKN012 SCT035TCU
PROB30
TEMPO 2715/2802 BKN025
BECMG 2722/2724 VRB03KT
PROB40
TEMPO 2802/2807 4000 BR
PROB30 2803/2807 0600 BCFG VV///
BECMG 2807/2809 31005KT CAVOK



MET'MAP, la Météo Aéronautique d'un coup d'oeil ! - Copyright ORBIFLY Décembre 2007 - Disclaimer

ORBIFLY MET'MAP TEAM :

Programmation & Développement : Alexandra Zaïnal
Sur une idée originale de : Baudouin d'Aumeries
Soutien technique & logistique : Manuel Goepfert
Assistance : Marc-Olivier Méhu




SOURCES & CREDITS :

   NOAA